sensor_id;sensor_type;location;lat;lon;timestamp;pressure;altitude;pressure_sealevel;temperature;humidity
44934;BME280;30667;43.614;1.442;2023-12-20T00:00:52;101136.34;;;6.49;100.00
44934;BME280;30667;43.614;1.442;2023-12-20T00:03:17;101123.50;;;6.51;100.00
44934;BME280;30667;43.614;1.442;2023-12-20T00:05:42;101121.63;;;6.52;100.00
44934;BME280;30667;43.614;1.442;2023-12-20T00:08:08;101116.47;;;6.50;100.00
44934;BME280;30667;43.614;1.442;2023-12-20T00:10:33;101111.47;;;6.54;100.00
44934;BME280;30667;43.614;1.442;2023-12-20T00:12:59;101108.78;;;6.54;100.00
44934;BME280;30667;43.614;1.442;2023-12-20T00:15:24;101112.31;;;6.54;100.00
44934;BME280;30667;43.614;1.442;2023-12-20T00:17:49;101115.81;;;6.55;100.00
44934;BME280;30667;43.614;1.442;2023-12-20T00:20:15;101121.19;;;6.55;100.00
44934;BME280;30667;43.614;1.442;2023-12-20T00:22:40;101110.41;;;6.55;100.00
44934;BME280;30667;43.614;1.442;2023-12-20T00:25:06;101097.56;;;6.57;100.00
44934;BME280;30667;43.614;1.442;2023-12-20T00:27:32;101094.88;;;6.57;100.00
44934;BME280;30667;43.614;1.442;2023-12-20T00:29:57;101075.84;;;6.59;100.00
44934;BME280;30667;43.614;1.442;2023-12-20T00:32:23;101085.09;;;6.63;100.00
44934;BME280;30667;43.614;1.442;2023-12-20T00:34:48;101084.75;;;6.59;100.00
44934;BME280;30667;43.614;1.442;2023-12-20T00:37:13;101081.22;;;6.59;100.00
44934;BME280;30667;43.614;1.442;2023-12-20T00:39:39;101077.47;;;6.60;100.00
44934;BME280;30667;43.614;1.442;2023-12-20T00:42:04;101070.44;;;6.59;100.00
44934;BME280;30667;43.614;1.442;2023-12-20T00:44:30;101072.56;;;6.57;100.00
44934;BME280;30667;43.614;1.442;2023-12-20T00:46:55;101067.19;;;6.57;100.00
44934;BME280;30667;43.614;1.442;2023-12-20T00:49:20;101055.16;;;6.59;100.00
44934;BME280;30667;43.614;1.442;2023-12-20T00:51:46;101054.94;;;6.61;100.00
44934;BME280;30667;43.614;1.442;2023-12-20T00:54:13;101058.44;;;6.61;100.00
44934;BME280;30667;43.614;1.442;2023-12-20T00:56:38;101051.41;;;6.60;100.00
44934;BME280;30667;43.614;1.442;2023-12-20T00:59:04;101051.19;;;6.62;100.00
44934;BME280;30667;43.614;1.442;2023-12-20T01:01:29;101041.63;;;6.66;100.00
44934;BME280;30667;43.614;1.442;2023-12-20T01:03:54;101051.31;;;6.67;100.00
44934;BME280;30667;43.614;1.442;2023-12-20T01:06:20;101044.53;;;6.64;100.00
44934;BME280;30667;43.614;1.442;2023-12-20T01:08:46;101045.94;;;6.67;100.00
44934;BME280;30667;43.614;1.442;2023-12-20T01:11:11;101040.94;;;6.70;100.00
44934;BME280;30667;43.614;1.442;2023-12-20T01:13:36;101036.63;;;6.69;100.00
44934;BME280;30667;43.614;1.442;2023-12-20T01:16:02;101037.19;;;6.71;100.00
44934;BME280;30667;43.614;1.442;2023-12-20T01:18:28;101037.19;;;6.71;100.00
44934;BME280;30667;43.614;1.442;2023-12-20T01:20:53;101027.06;;;6.73;100.00
44934;BME280;30667;43.614;1.442;2023-12-20T01:23:18;101033.03;;;6.76;100.00
44934;BME280;30667;43.614;1.442;2023-12-20T01:25:44;101031.38;;;6.75;100.00
44934;BME280;30667;43.614;1.442;2023-12-20T01:28:09;101028.91;;;6.73;100.00
44934;BME280;30667;43.614;1.442;2023-12-20T01:30:35;101025.19;;;6.74;100.00
44934;BME280;30667;43.614;1.442;2023-12-20T01:33:00;101019.56;;;6.76;100.00
44934;BME280;30667;43.614;1.442;2023-12-20T01:35:26;101016.88;;;6.76;100.00
44934;BME280;30667;43.614;1.442;2023-12-20T01:37:52;101012.94;;;6.78;100.00
44934;BME280;30667;43.614;1.442;2023-12-20T01:40:17;101005.66;;;6.79;100.00
44934;BME280;30667;43.614;1.442;2023-12-20T01:42:42;101011.63;;;6.81;100.00
44934;BME280;30667;43.614;1.442;2023-12-20T01:45:08;101011.63;;;6.81;100.00
44934;BME280;30667;43.614;1.442;2023-12-20T01:47:34;101013.50;;;6.80;100.00
44934;BME280;30667;43.614;1.442;2023-12-20T01:49:59;100999.84;;;6.82;100.00
44934;BME280;30667;43.614;1.442;2023-12-20T01:52:25;101006.03;;;6.82;100.00
44934;BME280;30667;43.614;1.442;2023-12-20T01:54:51;101009.06;;;6.86;100.00
44934;BME280;30667;43.614;1.442;2023-12-20T01:57:17;101004.53;;;6.86;100.00
44934;BME280;30667;43.614;1.442;2023-12-20T01:59:43;100996.25;;;6.88;100.00
44934;BME280;30667;43.614;1.442;2023-12-20T02:02:09;100994.34;;;6.88;100.00
44934;BME280;30667;43.614;1.442;2023-12-20T02:04:37;100993.31;;;6.89;100.00
44934;BME280;30667;43.614;1.442;2023-12-20T02:07:03;100987.94;;;6.89;100.00
44934;BME280;30667;43.614;1.442;2023-12-20T02:09:28;100978.56;;;6.92;100.00
44934;BME280;30667;43.614;1.442;2023-12-20T02:11:54;100975.88;;;6.92;100.00
44934;BME280;30667;43.614;1.442;2023-12-20T02:14:19;100971.13;;;6.94;100.00
44934;BME280;30667;43.614;1.442;2023-12-20T02:16:45;100969.47;;;6.93;100.00
44934;BME280;30667;43.614;1.442;2023-12-20T02:19:13;100971.34;;;6.93;100.00
44934;BME280;30667;43.614;1.442;2023-12-20T02:21:40;100962.44;;;6.92;100.00
44934;BME280;30667;43.614;1.442;2023-12-20T02:24:05;100955.19;;;6.93;100.00
44934;BME280;30667;43.614;1.442;2023-12-20T02:26:32;100962.44;;;6.92;100.00
44934;BME280;30667;43.614;1.442;2023-12-20T02:28:59;100953.31;;;6.93;100.00
44934;BME280;30667;43.614;1.442;2023-12-20T02:31:24;100948.75;;;6.94;100.00
44934;BME280;30667;43.614;1.442;2023-12-20T02:33:49;100948.50;;;6.95;100.00
44934;BME280;30667;43.614;1.442;2023-12-20T02:36:15;100946.06;;;6.94;100.00
44934;BME280;30667;43.614;1.442;2023-12-20T02:38:40;100956.59;;;6.95;100.00
44934;BME280;30667;43.614;1.442;2023-12-20T02:41:06;100950.16;;;6.96;100.00
44934;BME280;30667;43.614;1.442;2023-12-20T02:43:31;100948.50;;;6.95;100.00
44934;BME280;30667;43.614;1.442;2023-12-20T02:45:56;100940.56;;;7.00;100.00
44934;BME280;30667;43.614;1.442;2023-12-20T02:48:22;100937.19;;;7.05;100.00
44934;BME280;30667;43.614;1.442;2023-12-20T02:50:48;100930.75;;;7.06;100.00
44934;BME280;30667;43.614;1.442;2023-12-20T02:53:14;100938.16;;;7.11;100.00
44934;BME280;30667;43.614;1.442;2023-12-20T02:55:39;100931.72;;;7.12;100.00
44934;BME280;30667;43.614;1.442;2023-12-20T02:58:05;100920.69;;;7.13;100.00
44934;BME280;30667;43.614;1.442;2023-12-20T03:00:30;100912.38;;;7.15;100.00
44934;BME280;30667;43.614;1.442;2023-12-20T03:02:56;100917.19;;;7.13;100.00
44934;BME280;30667;43.614;1.442;2023-12-20T03:05:21;100913.69;;;7.12;100.00
44934;BME280;30667;43.614;1.442;2023-12-20T03:07:46;100908.78;;;7.09;100.00
44934;BME280;30667;43.614;1.442;2023-12-20T03:10:12;100905.84;;;7.11;100.00
44934;BME280;30667;43.614;1.442;2023-12-20T03:12:37;100891.59;;;7.10;100.00
44934;BME280;30667;43.614;1.442;2023-12-20T03:15:02;100889.94;;;7.09;100.00
44934;BME280;30667;43.614;1.442;2023-12-20T03:17:28;100887.13;;;7.04;100.00
44934;BME280;30667;43.614;1.442;2023-12-20T03:19:53;100885.72;;;7.01;100.00
44934;BME280;30667;43.614;1.442;2023-12-20T03:22:19;100892.84;;;6.96;100.00
44934;BME280;30667;43.614;1.442;2023-12-20T03:24:44;100892.84;;;6.96;100.00
44934;BME280;30667;43.614;1.442;2023-12-20T03:27:09;100890.16;;;6.96;100.00
44934;BME280;30667;43.614;1.442;2023-12-20T03:29:34;100890.16;;;6.96;100.00
44934;BME280;30667;43.614;1.442;2023-12-20T03:32:00;100890.41;;;6.94;100.00
44934;BME280;30667;43.614;1.442;2023-12-20T03:34:26;100900.09;;;6.95;100.00
44934;BME280;30667;43.614;1.442;2023-12-20T03:36:51;100882.56;;;6.93;100.00
44934;BME280;30667;43.614;1.442;2023-12-20T03:39:17;100892.72;;;6.90;100.00
44934;BME280;30667;43.614;1.442;2023-12-20T03:41:42;100889.66;;;6.87;100.00
44934;BME280;30667;43.614;1.442;2023-12-20T03:44:08;100888.25;;;6.84;100.00
44934;BME280;30667;43.614;1.442;2023-12-20T03:46:33;100884.75;;;6.84;100.00
44934;BME280;30667;43.614;1.442;2023-12-20T03:48:58;100887.44;;;6.84;100.00
44934;BME280;30667;43.614;1.442;2023-12-20T03:51:24;100884.41;;;6.80;100.00
44934;BME280;30667;43.614;1.442;2023-12-20T03:53:49;100881.13;;;6.78;100.00
44934;BME280;30667;43.614;1.442;2023-12-20T03:56:15;100874.91;;;6.78;100.00
44934;BME280;30667;43.614;1.442;2023-12-20T03:58:40;100879.25;;;6.79;100.00
44934;BME280;30667;43.614;1.442;2023-12-20T04:01:10;100870.38;;;6.78;100.00
44934;BME280;30667;43.614;1.442;2023-12-20T04:03:39;100874.09;;;6.77;100.00
44934;BME280;30667;43.614;1.442;2023-12-20T04:06:05;100868.50;;;6.79;100.00
44934;BME280;30667;43.614;1.442;2023-12-20T04:08:30;100862.53;;;6.77;100.00
44934;BME280;30667;43.614;1.442;2023-12-20T04:10:56;100865.00;;;6.78;100.00
44934;BME280;30667;43.614;1.442;2023-12-20T04:13:21;100855.84;;;6.79;100.00
44934;BME280;30667;43.614;1.442;2023-12-20T04:15:46;100851.53;;;6.78;100.00
44934;BME280;30667;43.614;1.442;2023-12-20T04:18:13;100841.59;;;6.79;100.00
44934;BME280;30667;43.614;1.442;2023-12-20T04:20:38;100839.72;;;6.79;100.00
44934;BME280;30667;43.614;1.442;2023-12-20T04:23:03;100845.44;;;6.83;100.00
44934;BME280;30667;43.614;1.442;2023-12-20T04:25:29;100841.94;;;6.82;100.00
44934;BME280;30667;43.614;1.442;2023-12-20T04:27:54;100842.53;;;6.84;100.00
44934;BME280;30667;43.614;1.442;2023-12-20T04:30:19;100848.50;;;6.86;100.00
44934;BME280;30667;43.614;1.442;2023-12-20T04:32:45;100837.53;;;6.88;100.00
44934;BME280;30667;43.614;1.442;2023-12-20T04:35:10;100845.34;;;6.89;100.00
44934;BME280;30667;43.614;1.442;2023-12-20T04:37:35;100837.06;;;6.91;100.00
44934;BME280;30667;43.614;1.442;2023-12-20T04:40:01;100835.97;;;6.92;100.00
44934;BME280;30667;43.614;1.442;2023-12-20T04:42:27;100837.41;;;6.95;100.00
44934;BME280;30667;43.614;1.442;2023-12-20T04:44:52;100830.72;;;6.97;100.00
44934;BME280;30667;43.614;1.442;2023-12-20T04:47:17;100826.97;;;6.98;100.00
44934;BME280;30667;43.614;1.442;2023-12-20T04:49:43;100829.44;;;7.00;100.00
44934;BME280;30667;43.614;1.442;2023-12-20T04:52:08;100826.53;;;7.01;100.00
44934;BME280;30667;43.614;1.442;2023-12-20T04:54:34;100826.28;;;7.03;100.00
44934;BME280;30667;43.614;1.442;2023-12-20T04:56:59;100823.13;;;7.06;100.00
44934;BME280;30667;43.614;1.442;2023-12-20T04:59:25;100821.84;;;7.08;100.00
44934;BME280;30667;43.614;1.442;2023-12-20T05:01:50;100815.41;;;7.09;100.00
44934;BME280;30667;43.614;1.442;2023-12-20T05:04:15;100816.81;;;7.12;100.00
44934;BME280;30667;43.614;1.442;2023-12-20T05:06:41;100817.38;;;7.14;100.00
44934;BME280;30667;43.614;1.442;2023-12-20T05:09:06;100815.50;;;7.15;100.00
44934;BME280;30667;43.614;1.442;2023-12-20T05:11:31;100827.13;;;7.15;100.00
44934;BME280;30667;43.614;1.442;2023-12-20T05:13:57;100828.25;;;7.19;100.00
44934;BME280;30667;43.614;1.442;2023-12-20T05:16:22;100826.97;;;7.22;100.00
44934;BME280;30667;43.614;1.442;2023-12-20T05:18:48;100830.00;;;7.25;100.00
44934;BME280;30667;43.614;1.442;2023-12-20T05:21:15;100826.84;;;7.28;100.00
44934;BME280;30667;43.614;1.442;2023-12-20T05:23:40;100830.97;;;7.31;100.00
44934;BME280;30667;43.614;1.442;2023-12-20T05:26:06;100825.91;;;7.35;100.00
44934;BME280;30667;43.614;1.442;2023-12-20T05:28:31;100826.25;;;7.38;100.00
44934;BME280;30667;43.614;1.442;2023-12-20T05:30:57;100836.91;;;7.45;100.00
44934;BME280;30667;43.614;1.442;2023-12-20T05:33:23;100842.41;;;7.50;100.00
44934;BME280;30667;43.614;1.442;2023-12-20T05:35:48;100847.91;;;7.55;100.00
44934;BME280;30667;43.614;1.442;2023-12-20T05:38:13;100849.31;;;7.58;100.00
44934;BME280;30667;43.614;1.442;2023-12-20T05:40:39;100850.47;;;7.62;100.00
44934;BME280;30667;43.614;1.442;2023-12-20T05:43:04;100856.66;;;7.62;100.00
44934;BME280;30667;43.614;1.442;2023-12-20T05:45:29;100853.97;;;7.62;100.00
44934;BME280;30667;43.614;1.442;2023-12-20T05:47:55;100849.41;;;7.63;100.00
44934;BME280;30667;43.614;1.442;2023-12-20T05:50:20;100862.66;;;7.64;100.00
44934;BME280;30667;43.614;1.442;2023-12-20T05:52:46;100869.19;;;7.69;100.00
44934;BME280;30667;43.614;1.442;2023-12-20T05:55:11;100866.72;;;7.67;100.00
44934;BME280;30667;43.614;1.442;2023-12-20T05:57:37;100864.63;;;7.69;100.00
44934;BME280;30667;43.614;1.442;2023-12-20T06:00:02;100875.41;;;7.69;100.00
44934;BME280;30667;43.614;1.442;2023-12-20T06:02:28;100883.47;;;7.69;100.00
44934;BME280;30667;43.614;1.442;2023-12-20T06:04:54;100895.06;;;7.70;100.00
44934;BME280;30667;43.614;1.442;2023-12-20T06:07:19;100895.06;;;7.70;100.00
44934;BME280;30667;43.614;1.442;2023-12-20T06:09:45;100900.47;;;7.70;100.00
44934;BME280;30667;43.614;1.442;2023-12-20T06:12:11;100898.81;;;7.69;100.00
44934;BME280;30667;43.614;1.442;2023-12-20T06:14:36;100901.25;;;7.70;100.00
44934;BME280;30667;43.614;1.442;2023-12-20T06:17:02;100898.34;;;7.72;100.00
44934;BME280;30667;43.614;1.442;2023-12-20T06:19:28;100902.69;;;7.73;100.00
44934;BME280;30667;43.614;1.442;2023-12-20T06:21:54;100907.81;;;7.74;100.00
44934;BME280;30667;43.614;1.442;2023-12-20T06:24:19;100910.84;;;7.78;100.00
44934;BME280;30667;43.614;1.442;2023-12-20T06:26:45;100911.44;;;7.80;100.00
44934;BME280;30667;43.614;1.442;2023-12-20T06:29:10;100921.75;;;7.83;100.00
44934;BME280;30667;43.614;1.442;2023-12-20T06:31:35;100926.88;;;7.85;100.00
44934;BME280;30667;43.614;1.442;2023-12-20T06:34:01;100933.94;;;7.86;100.00
44934;BME280;30667;43.614;1.442;2023-12-20T06:36:26;100939.09;;;7.87;100.00
44934;BME280;30667;43.614;1.442;2023-12-20T06:38:58;100933.47;;;7.89;100.00
44934;BME280;30667;43.614;1.442;2023-12-20T06:41:23;100940.00;;;7.93;100.00
44934;BME280;30667;43.614;1.442;2023-12-20T06:43:49;100940.34;;;7.96;100.00
44934;BME280;30667;43.614;1.442;2023-12-20T06:46:15;100947.13;;;7.99;100.00
44934;BME280;30667;43.614;1.442;2023-12-20T06:48:40;100959.19;;;8.08;100.00
44934;BME280;30667;43.614;1.442;2023-12-20T06:51:06;100955.31;;;8.16;100.00
44934;BME280;30667;43.614;1.442;2023-12-20T06:53:31;100967.00;;;8.22;100.00
44934;BME280;30667;43.614;1.442;2023-12-20T06:55:57;100961.03;;;8.19;100.00
44934;BME280;30667;43.614;1.442;2023-12-20T06:58:23;100981.22;;;8.17;100.00
44934;BME280;30667;43.614;1.442;2023-12-20T07:00:49;100978.06;;;8.20;100.00
44934;BME280;30667;43.614;1.442;2023-12-20T07:03:14;100979.66;;;8.21;100.00
44934;BME280;30667;43.614;1.442;2023-12-20T07:05:39;100993.38;;;8.19;100.00
44934;BME280;30667;43.614;1.442;2023-12-20T07:08:06;100996.09;;;8.19;100.00
44934;BME280;30667;43.614;1.442;2023-12-20T07:10:31;100998.78;;;8.19;100.00
44934;BME280;30667;43.614;1.442;2023-12-20T07:12:57;101003.34;;;8.19;100.00
44934;BME280;30667;43.614;1.442;2023-12-20T07:15:22;100999.25;;;8.16;100.00
44934;BME280;30667;43.614;1.442;2023-12-20T07:17:48;101012.72;;;8.16;100.00
44934;BME280;30667;43.614;1.442;2023-12-20T07:20:13;101022.13;;;8.14;100.00
44934;BME280;30667;43.614;1.442;2023-12-20T07:22:38;101032.31;;;8.12;100.00
44934;BME280;30667;43.614;1.442;2023-12-20T07:25:04;101033.84;;;8.08;100.00
44934;BME280;30667;43.614;1.442;2023-12-20T07:27:30;101043.22;;;8.05;100.00
44934;BME280;30667;43.614;1.442;2023-12-20T07:30:02;101048.25;;;8.02;100.00
44934;BME280;30667;43.614;1.442;2023-12-20T07:32:30;101049.31;;;8.00;100.00
44934;BME280;30667;43.614;1.442;2023-12-20T07:34:57;101053.06;;;7.99;100.00
44934;BME280;30667;43.614;1.442;2023-12-20T07:37:22;101055.16;;;7.97;100.00
44934;BME280;30667;43.614;1.442;2023-12-20T07:39:48;101052.69;;;7.96;100.00
44934;BME280;30667;43.614;1.442;2023-12-20T07:42:13;101066.41;;;7.94;100.00
44934;BME280;30667;43.614;1.442;2023-12-20T07:44:39;101060.69;;;7.91;100.00
44934;BME280;30667;43.614;1.442;2023-12-20T07:47:04;101070.41;;;7.92;100.00
44934;BME280;30667;43.614;1.442;2023-12-20T07:49:31;101075.22;;;7.90;100.00
44934;BME280;30667;43.614;1.442;2023-12-20T07:51:57;101083.31;;;7.90;100.00
44934;BME280;30667;43.614;1.442;2023-12-20T07:54:22;101098.41;;;7.91;100.00
44934;BME280;30667;43.614;1.442;2023-12-20T07:56:48;101099.72;;;7.88;100.00
44934;BME280;30667;43.614;1.442;2023-12-20T07:59:14;101099.94;;;7.87;100.00
44934;BME280;30667;43.614;1.442;2023-12-20T08:01:39;101114.69;;;7.84;100.00
44934;BME280;30667;43.614;1.442;2023-12-20T08:04:05;101120.41;;;7.88;100.00
44934;BME280;30667;43.614;1.442;2023-12-20T08:06:30;101128.16;;;7.84;100.00
44934;BME280;30667;43.614;1.442;2023-12-20T08:08:55;101123.22;;;7.81;100.00
44934;BME280;30667;43.614;1.442;2023-12-20T08:11:21;101135.28;;;7.78;100.00
44934;BME280;30667;43.614;1.442;2023-12-20T08:13:46;101137.75;;;7.80;100.00
44934;BME280;30667;43.614;1.442;2023-12-20T08:16:11;101148.16;;;7.76;100.00
44934;BME280;30667;43.614;1.442;2023-12-20T08:18:39;101145.69;;;7.75;100.00
44934;BME280;30667;43.614;1.442;2023-12-20T08:21:04;101142.53;;;7.78;100.00
44934;BME280;30667;43.614;1.442;2023-12-20T08:23:32;101151.91;;;7.75;100.00
44934;BME280;30667;43.614;1.442;2023-12-20T08:25:58;101159.53;;;7.78;100.00
44934;BME280;30667;43.614;1.442;2023-12-20T08:28:23;101154.59;;;7.75;100.00
44934;BME280;30667;43.614;1.442;2023-12-20T08:30:48;101166.22;;;7.76;100.00
44934;BME280;30667;43.614;1.442;2023-12-20T08:33:18;101175.91;;;7.77;100.00
44934;BME280;30667;43.614;1.442;2023-12-20T08:35:44;101175.91;;;7.77;100.00
44934;BME280;30667;43.614;1.442;2023-12-20T08:38:09;101189.38;;;7.77;100.00
44934;BME280;30667;43.614;1.442;2023-12-20T08:40:35;101200.16;;;7.77;100.00
44934;BME280;30667;43.614;1.442;2023-12-20T08:43:01;101207.44;;;7.76;100.00
44934;BME280;30667;43.614;1.442;2023-12-20T08:45:26;101213.88;;;7.75;100.00
44934;BME280;30667;43.614;1.442;2023-12-20T08:47:52;101213.06;;;7.75;100.00
44934;BME280;30667;43.614;1.442;2023-12-20T08:50:17;101212.81;;;7.76;100.00
44934;BME280;30667;43.614;1.442;2023-12-20T08:52:43;101220.09;;;7.76;100.00
44934;BME280;30667;43.614;1.442;2023-12-20T08:55:08;101227.09;;;7.77;100.00
44934;BME280;30667;43.614;1.442;2023-12-20T08:57:35;101231.69;;;7.76;100.00
44934;BME280;30667;43.614;1.442;2023-12-20T09:00:01;101229.81;;;7.77;100.00
44934;BME280;30667;43.614;1.442;2023-12-20T09:02:26;101234.72;;;7.80;100.00
44934;BME280;30667;43.614;1.442;2023-12-20T09:04:51;101236.63;;;7.79;100.00
44934;BME280;30667;43.614;1.442;2023-12-20T09:07:26;101249.84;;;7.81;100.00
44934;BME280;30667;43.614;1.442;2023-12-20T09:09:53;101245.50;;;7.80;100.00
44934;BME280;30667;43.614;1.442;2023-12-20T09:12:19;101260.88;;;7.79;100.00
44934;BME280;30667;43.614;1.442;2023-12-20T09:14:46;101259.59;;;7.82;100.00
44934;BME280;30667;43.614;1.442;2023-12-20T09:17:12;101258.97;;;7.80;100.00
44934;BME280;30667;43.614;1.442;2023-12-20T09:19:37;101266.84;;;7.81;100.00
44934;BME280;30667;43.614;1.442;2023-12-20T09:22:03;101278.69;;;7.80;100.00
44934;BME280;30667;43.614;1.442;2023-12-20T09:24:30;101281.38;;;7.80;100.00
44934;BME280;30667;43.614;1.442;2023-12-20T09:26:55;101280.94;;;7.84;100.00
44934;BME280;30667;43.614;1.442;2023-12-20T09:29:20;101289.00;;;7.84;100.00
44934;BME280;30667;43.614;1.442;2023-12-20T09:31:46;101292.28;;;7.86;100.00
44934;BME280;30667;43.614;1.442;2023-12-20T09:34:11;101299.09;;;7.88;100.00
44934;BME280;30667;43.614;1.442;2023-12-20T09:36:37;101304.00;;;7.91;100.00
44934;BME280;30667;43.614;1.442;2023-12-20T09:39:05;101301.94;;;7.93;100.00
44934;BME280;30667;43.614;1.442;2023-12-20T09:41:37;101318.91;;;7.94;100.00
44934;BME280;30667;43.614;1.442;2023-12-20T09:44:04;101317.88;;;7.95;100.00
44934;BME280;30667;43.614;1.442;2023-12-20T09:46:32;101312.81;;;7.87;100.00
44934;BME280;30667;43.614;1.442;2023-12-20T09:49:00;101311.97;;;7.86;100.00
44934;BME280;30667;43.614;1.442;2023-12-20T09:51:28;101311.88;;;7.93;100.00
44934;BME280;30667;43.614;1.442;2023-12-20T09:53:54;101308.13;;;7.94;100.00
44934;BME280;30667;43.614;1.442;2023-12-20T09:56:21;101316.50;;;8.04;100.00
44934;BME280;30667;43.614;1.442;2023-12-20T09:58:47;101320.03;;;8.05;100.00
44934;BME280;30667;43.614;1.442;2023-12-20T10:01:14;101324.13;;;8.07;100.00
44934;BME280;30667;43.614;1.442;2023-12-20T10:03:40;101324.97;;;8.08;100.00
44934;BME280;30667;43.614;1.442;2023-12-20T10:06:06;101326.13;;;8.12;100.00
44934;BME280;30667;43.614;1.442;2023-12-20T10:08:32;101333.19;;;8.13;100.00
44934;BME280;30667;43.614;1.442;2023-12-20T10:10:58;101334.84;;;8.14;100.00
44934;BME280;30667;43.614;1.442;2023-12-20T10:13:27;101336.84;;;8.18;100.00
44934;BME280;30667;43.614;1.442;2023-12-20T10:15:55;101334.50;;;8.22;100.00
44934;BME280;30667;43.614;1.442;2023-12-20T10:18:21;101331.81;;;8.22;100.00
44934;BME280;30667;43.614;1.442;2023-12-20T10:20:47;101330.72;;;8.23;100.00
44934;BME280;30667;43.614;1.442;2023-12-20T10:23:12;101332.63;;;8.23;100.00
44934;BME280;30667;43.614;1.442;2023-12-20T10:25:39;101334.03;;;8.25;100.00
44934;BME280;30667;43.614;1.442;2023-12-20T10:30:34;101328.91;;;8.35;100.00
44934;BME280;30667;43.614;1.442;2023-12-20T10:33:00;101323.97;;;8.32;100.00
44934;BME280;30667;43.614;1.442;2023-12-20T10:35:26;101324.81;;;8.33;100.00
44934;BME280;30667;43.614;1.442;2023-12-20T10:37:55;101318.13;;;8.35;100.00
44934;BME280;30667;43.614;1.442;2023-12-20T10:40:21;101315.31;;;8.42;100.00
44934;BME280;30667;43.614;1.442;2023-12-20T10:42:47;101314.72;;;8.40;100.00
44934;BME280;30667;43.614;1.442;2023-12-20T10:45:12;101314.88;;;8.45;100.00
44934;BME280;30667;43.614;1.442;2023-12-20T10:47:39;101312.63;;;8.42;100.00
44934;BME280;30667;43.614;1.442;2023-12-20T10:50:06;101306.34;;;8.48;100.00
44934;BME280;30667;43.614;1.442;2023-12-20T10:52:34;101303.63;;;8.48;100.00
44934;BME280;30667;43.614;1.442;2023-12-20T10:55:00;101289.22;;;8.54;100.00
44934;BME280;30667;43.614;1.442;2023-12-20T10:57:27;101285.22;;;8.45;100.00
44934;BME280;30667;43.614;1.442;2023-12-20T10:59:54;101289.44;;;8.53;100.00
44934;BME280;30667;43.614;1.442;2023-12-20T11:02:19;101292.50;;;8.57;100.00
44934;BME280;30667;43.614;1.442;2023-12-20T11:04:55;101296.28;;;8.67;100.00
44934;BME280;30667;43.614;1.442;2023-12-20T11:07:35;101293.47;;;8.74;100.00
44934;BME280;30667;43.614;1.442;2023-12-20T11:10:23;101295.22;;;8.80;100.00
44934;BME280;30667;43.614;1.442;2023-12-20T11:15:24;101298.28;;;8.84;100.00
44934;BME280;30667;43.614;1.442;2023-12-20T11:17:56;101293.59;;;8.91;100.00
44934;BME280;30667;43.614;1.442;2023-12-20T11:20:35;101295.91;;;8.76;100.00
44934;BME280;30667;43.614;1.442;2023-12-20T11:23:02;101286.06;;;8.69;100.00
44934;BME280;30667;43.614;1.442;2023-12-20T11:25:27;101283.47;;;8.63;100.00
44934;BME280;30667;43.614;1.442;2023-12-20T11:28:11;101279.97;;;8.50;100.00
44934;BME280;30667;43.614;1.442;2023-12-20T11:30:41;101289.09;;;8.49;100.00
44934;BME280;30667;43.614;1.442;2023-12-20T11:33:08;101292.38;;;8.51;100.00
44934;BME280;30667;43.614;1.442;2023-12-20T11:35:34;101289.56;;;8.46;100.00
44934;BME280;30667;43.614;1.442;2023-12-20T11:38:01;101284.84;;;8.42;100.00
44934;BME280;30667;43.614;1.442;2023-12-20T11:40:27;101269.25;;;8.44;100.00
44934;BME280;30667;43.614;1.442;2023-12-20T11:42:52;101268.22;;;8.45;100.00
44934;BME280;30667;43.614;1.442;2023-12-20T11:45:20;101265.19;;;8.53;100.00
44934;BME280;30667;43.614;1.442;2023-12-20T11:47:51;101263.66;;;8.57;100.00
44934;BME280;30667;43.614;1.442;2023-12-20T11:50:27;101255.94;;;8.49;100.00
44934;BME280;30667;43.614;1.442;2023-12-20T11:56:21;101245.25;;;8.54;100.00
44934;BME280;30667;43.614;1.442;2023-12-20T11:58:47;101245.25;;;8.54;100.00
44934;BME280;30667;43.614;1.442;2023-12-20T12:01:25;101247.47;;;8.57;100.00
44934;BME280;30667;43.614;1.442;2023-12-20T12:04:05;101239.16;;;8.59;100.00
44934;BME280;30667;43.614;1.442;2023-12-20T12:06:31;101239.97;;;8.59;100.00
44934;BME280;30667;43.614;1.442;2023-12-20T12:08:56;101242.66;;;8.59;100.00
44934;BME280;30667;43.614;1.442;2023-12-20T12:11:22;101244.91;;;8.62;100.00
44934;BME280;30667;43.614;1.442;2023-12-20T12:13:48;101242.66;;;8.71;100.00
44934;BME280;30667;43.614;1.442;2023-12-20T12:16:17;101240.66;;;8.90;100.00
44934;BME280;30667;43.614;1.442;2023-12-20T12:18:44;101248.03;;;8.95;100.00
44934;BME280;30667;43.614;1.442;2023-12-20T12:21:10;101249.47;;;8.97;100.00
44934;BME280;30667;43.614;1.442;2023-12-20T12:23:35;101240.41;;;9.03;100.00
44934;BME280;30667;43.614;1.442;2023-12-20T12:26:04;101246.25;;;9.12;100.00
44934;BME280;30667;43.614;1.442;2023-12-20T12:28:29;101253.13;;;9.32;100.00
44934;BME280;30667;43.614;1.442;2023-12-20T12:31:00;101250.19;;;9.33;100.00
44934;BME280;30667;43.614;1.442;2023-12-20T12:33:25;101249.16;;;9.34;100.00
44934;BME280;30667;43.614;1.442;2023-12-20T12:35:51;101251.56;;;9.07;100.00
44934;BME280;30667;43.614;1.442;2023-12-20T12:38:20;101260.97;;;8.81;100.00
44934;BME280;30667;43.614;1.442;2023-12-20T12:40:46;101278.09;;;8.63;100.00
44934;BME280;30667;43.614;1.442;2023-12-20T12:43:11;101274.81;;;8.49;100.00
44934;BME280;30667;43.614;1.442;2023-12-20T12:45:38;101282.38;;;8.40;100.00
44934;BME280;30667;43.614;1.442;2023-12-20T12:48:03;101275.50;;;8.44;100.00
44934;BME280;30667;43.614;1.442;2023-12-20T12:50:30;101284.75;;;8.48;100.00
44934;BME280;30667;43.614;1.442;2023-12-20T12:52:55;101282.16;;;8.53;100.00